Portada
METAR-TAF:

METAR-TAF

Aeroports :

Oswego County Airport

Fulton, Nova York, Estats Units d'Amèrica

latitud: 43-21-03N, longitud: 076-23-17W, altitud: 145 m

Observació

L'informe es va fer fa 41 minuts, a les 16:54 UTC
Vent 8 kt del Nord
Temperatura 20°C
Humitat 53%
Pressió 1025 hPa
Visibilitat: 16.1 km
Núvols disperses a una alçada de 3500 ft
Cel cobert a una alçada de 4800 ft

METAR: KFZY 241654Z AUTO 35008KT 10SM SCT035 OVC048 20/10 A3027 RMK AO2 SLP250 T02000100

Hora: 13:35 (17:35 UTC)


TAF: manca

Observacions i pronòstics meteorològics de més de 4000 aeroports (METAR i TAF).

Les estacions disponibles són els punts grocs i vermells al mapa.

Posi el ratolí al punt desitjat per veure el nom de l'estació.

Feu clic per veure les observacions i els pronòstics meteorològics.

Per canviar el mapa: feu clic els botons verds amb una creu de color negre per apropar; al botó verd amb un guió per allunyar la imatge; o en les fletxes verdes per a mapes adjacents.


METAR-TAF: